Time;durP1;ratioP1;P1;durP2;ratioP2;P2;SDS_P1;SDS_P2;PMS_P1;PMS_P2;Temp;Humidity;BMP_temperature;BMP_pressure;BME280_temperature;BME280_humidity;BME280_pressure;Samples;Min_cycle;Max_cycle;Signal;HPM_P1;HPM_P2
2022/01/26 00:00:55;;;;;;;29.50;15.30;;;4.50;81.20;;;;;;5084433;28;20985;-70
2022/01/26 00:06:16;;;;;;;32.22;16.42;;;4.50;81.20;;;;;;5080095;28;20271;-70
2022/01/26 00:08:44;;;;;;;28.33;14.85;;;4.50;81.20;;;;;;5084330;28;20788;-69
2022/01/26 00:11:12;;;;;;;26.35;14.70;;;4.50;81.30;;;;;;5085707;28;20198;-71
2022/01/26 00:13:40;;;;;;;27.83;14.60;;;4.50;81.30;;;;;;5078054;28;20256;-70
2022/01/26 00:16:15;;;;;;;30.27;15.35;;;4.50;81.30;;;;;;5080095;28;20827;-70
2022/01/26 00:18:43;;;;;;;32.60;15.25;;;4.60;81.30;;;;;;5080234;28;20697;-70
2022/01/26 00:21:23;;;;;;;26.63;15.15;;;4.60;81.20;;;;;;5083556;28;20203;-70
2022/01/26 00:24:08;;;;;;;29.67;16.65;;;4.60;81.10;;;;;;5075251;28;20206;-69
2022/01/26 00:27:00;;;;;;;27.30;14.93;;;4.50;81.10;;;;;;5079467;28;20187;-70
2022/01/26 00:29:29;;;;;;;31.02;15.88;;;4.50;81.10;;;;;;5063037;28;20771;-70
2022/01/26 00:40:25;;;;;;;29.92;16.95;;;4.50;81.20;;;;;;5078915;28;20232;-70
2022/01/26 00:42:57;;;;;;;35.90;16.35;;;4.50;81.00;;;;;;5082250;28;20599;-70
2022/01/26 00:45:33;;;;;;;38.45;17.90;;;4.40;81.00;;;;;;5081759;28;20286;-70
2022/01/26 00:48:03;;;;;;;33.88;16.27;;;4.40;81.00;;;;;;5082358;28;20218;-69
2022/01/26 00:50:31;;;;;;;29.90;15.80;;;4.40;81.00;;;;;;5065967;28;20206;-70
2022/01/26 00:53:01;;;;;;;35.67;17.23;;;4.40;81.20;;;;;;5083205;28;20214;-70
2022/01/26 00:55:29;;;;;;;28.02;15.95;;;4.40;81.20;;;;;;5084299;28;20222;-69
2022/01/26 00:57:57;;;;;;;30.50;15.65;;;4.40;81.10;;;;;;5079095;28;20201;-69
2022/01/26 01:00:27;;;;;;;32.42;16.23;;;4.40;81.10;;;;;;5059070;28;21476;-69
2022/01/26 01:02:57;;;;;;;32.35;17.08;;;4.40;81.10;;;;;;5063408;28;20272;-69
2022/01/26 01:05:32;;;;;;;39.83;17.10;;;4.40;81.10;;;;;;5080930;28;20269;-69
2022/01/26 01:08:05;;;;;;;37.30;18.15;;;4.40;81.10;;;;;;5082754;28;20286;-70
2022/01/26 01:10:33;;;;;;;28.80;15.52;;;4.40;81.00;;;;;;5065580;28;20914;-70
2022/01/26 01:13:01;;;;;;;30.80;16.10;;;4.40;81.00;;;;;;5064855;28;20214;-70
2022/01/26 01:15:30;;;;;;;33.40;17.30;;;4.40;81.00;;;;;;5063802;28;20238;-70
2022/01/26 01:18:08;;;;;;;34.28;17.17;;;4.40;81.10;;;;;;5083853;28;20203;-70
2022/01/26 01:20:56;;;;;;;36.70;17.30;;;4.40;81.10;;;;;;5082830;28;20240;-71
2022/01/26 01:23:44;;;;;;;36.60;17.02;;;4.40;81.10;;;;;;5081323;28;21098;-70
2022/01/26 01:26:39;;;;;;;30.98;17.90;;;4.40;81.10;;;;;;5081957;28;20587;-70
2022/01/26 01:29:17;;;;;;;33.20;17.50;;;4.40;81.10;;;;;;5082530;28;20264;-69
2022/01/26 01:31:49;;;;;;;34.00;18.20;;;4.40;81.00;;;;;;5081595;28;20221;-71
2022/01/26 01:34:19;;;;;;;37.20;18.35;;;4.40;81.10;;;;;;5060431;28;20226;-71
2022/01/26 01:36:50;;;;;;;38.97;18.83;;;4.40;81.10;;;;;;5061703;28;20612;-70
2022/01/26 01:39:20;;;;;;;31.15;16.90;;;4.40;81.10;;;;;;5057322;28;20251;-71
2022/01/26 01:41:51;;;;;;;39.75;17.77;;;4.40;81.20;;;;;;5081450;28;20207;-71
2022/01/26 01:44:19;;;;;;;36.65;17.40;;;4.40;81.10;;;;;;5078892;28;20280;-70
2022/01/26 01:46:48;;;;;;;34.25;18.08;;;4.50;81.10;;;;;;5061431;28;20242;-70
2022/01/26 01:49:17;;;;;;;34.20;17.55;;;4.50;81.10;;;;;;5080992;28;20464;-70
2022/01/26 01:51:53;;;;;;;36.05;19.00;;;4.50;81.00;;;;;;5081612;28;20218;-70
2022/01/26 01:54:23;;;;;;;32.17;18.27;;;4.40;80.90;;;;;;5079254;28;20272;-70
2022/01/26 01:56:56;;;;;;;34.90;18.30;;;4.40;81.00;;;;;;5078981;28;20261;-71
2022/01/26 01:59:24;;;;;;;33.95;17.77;;;4.40;80.90;;;;;;5076902;28;20256;-69
2022/01/26 02:01:53;;;;;;;31.48;17.02;;;4.30;80.80;;;;;;5057195;28;20731;-70
2022/01/26 02:04:21;;;;;;;32.67;17.73;;;4.30;80.80;;;;;;5080148;28;20214;-72
2022/01/26 02:06:49;;;;;;;32.08;17.08;;;4.30;80.90;;;;;;5075942;28;20203;-72
2022/01/26 02:09:17;;;;;;;30.38;15.63;;;4.30;81.00;;;;;;5077092;28;20711;-71
2022/01/26 02:11:49;;;;;;;24.27;14.75;;;4.20;81.00;;;;;;5078724;28;20211;-70
2022/01/26 02:14:24;;;;;;;30.00;18.08;;;4.30;81.10;;;;;;5060616;28;20222;-69
2022/01/26 02:17:01;;;;;;;34.95;16.38;;;4.30;81.00;;;;;;5077803;28;20238;-71
2022/01/26 02:50:35;;;;;;;30.02;14.68;;;4.10;81.30;;;;;;5074875;28;20211;-71
2022/01/26 02:53:30;;;;;;;29.70;15.30;;;4.10;81.30;;;;;;5074171;28;20202;-70
2022/01/26 02:56:04;;;;;;;29.13;14.95;;;4.10;81.20;;;;;;5060954;28;20230;-70
2022/01/26 02:58:48;;;;;;;29.23;14.40;;;4.10;80.90;;;;;;5067610;28;20207;-70
2022/01/26 03:01:41;;;;;;;25.30;14.45;;;4.00;81.00;;;;;;5074982;28;20254;-70
2022/01/26 03:04:16;;;;;;;24.73;13.25;;;4.00;80.90;;;;;;5081482;28;20624;-71
2022/01/26 03:06:51;;;;;;;27.80;14.27;;;4.00;81.10;;;;;;5078957;28;20276;-70
2022/01/26 03:09:24;;;;;;;25.88;14.48;;;4.00;81.00;;;;;;5080883;28;20245;-70
2022/01/26 03:11:55;;;;;;;25.30;13.30;;;4.00;81.10;;;;;;5083946;28;20211;-71
2022/01/26 03:14:32;;;;;;;28.48;14.55;;;4.00;81.20;;;;;;5088228;28;20828;-70
2022/01/26 03:17:08;;;;;;;23.15;13.20;;;4.00;81.10;;;;;;5081328;28;21070;-70
2022/01/26 03:19:39;;;;;;;26.63;14.15;;;4.00;81.10;;;;;;5076686;28;20217;-71
2022/01/26 03:30:45;;;;;;;27.02;14.25;;;4.10;81.20;;;;;;5066461;28;20211;-71
2022/01/26 03:33:24;;;;;;;28.70;15.13;;;4.10;81.00;;;;;;5076883;28;20195;-70
2022/01/26 03:35:55;;;;;;;27.38;14.82;;;4.10;81.10;;;;;;5080554;28;20238;-70
2022/01/26 03:38:27;;;;;;;25.27;14.50;;;4.10;81.10;;;;;;5074394;28;20269;-70
2022/01/26 03:41:11;;;;;;;28.67;15.23;;;4.10;81.00;;;;;;5072140;28;20199;-72
2022/01/26 03:43:40;;;;;;;26.52;13.55;;;4.10;81.10;;;;;;5068965;28;20823;-71
2022/01/26 03:46:09;;;;;;;26.10;14.60;;;4.10;81.00;;;;;;5067854;28;20243;-70
2022/01/26 03:48:37;;;;;;;25.20;14.55;;;4.10;81.00;;;;;;5072986;28;20214;-70
2022/01/26 03:51:05;;;;;;;25.75;15.68;;;4.10;81.00;;;;;;5073069;28;20215;-70
2022/01/26 03:53:33;;;;;;;34.90;14.50;;;4.10;81.00;;;;;;5064983;28;20222;-70
2022/01/26 03:56:02;;;;;;;29.95;15.18;;;4.10;81.00;;;;;;5079893;28;20222;-71
2022/01/26 03:58:30;;;;;;;28.48;15.93;;;4.10;80.90;;;;;;5075456;28;20196;-70
2022/01/26 04:00:59;;;;;;;24.88;14.98;;;4.10;80.80;;;;;;5073901;28;20272;-70
2022/01/26 04:03:27;;;;;;;29.45;16.30;;;4.10;80.90;;;;;;5072449;28;20199;-70
2022/01/26 04:05:56;;;;;;;27.45;16.52;;;4.10;81.00;;;;;;5081054;28;20896;-71
2022/01/26 04:08:28;;;;;;;26.85;14.95;;;4.10;80.90;;;;;;5068285;28;20211;-70
2022/01/26 04:11:07;;;;;;;26.00;14.35;;;4.10;80.90;;;;;;5080556;28;20219;-70
2022/01/26 04:13:35;;;;;;;30.90;16.60;;;4.10;80.90;;;;;;5071558;28;20191;-70
2022/01/26 04:16:06;;;;;;;27.92;14.60;;;4.10;80.90;;;;;;5066930;28;20219;-70
2022/01/26 04:18:37;;;;;;;28.15;15.15;;;4.10;80.90;;;;;;5070054;28;20191;-70
2022/01/26 04:21:13;;;;;;;23.48;14.18;;;4.10;80.90;;;;;;5079582;28;20199;-70
2022/01/26 04:23:47;;;;;;;29.27;14.82;;;4.10;80.80;;;;;;5078719;28;20926;-71
2022/01/26 04:26:19;;;;;;;28.98;13.95;;;4.10;80.80;;;;;;5071035;28;20687;-70
2022/01/26 04:28:52;;;;;;;31.92;15.25;;;4.10;80.80;;;;;;5079674;28;20285;-70
2022/01/26 04:31:22;;;;;;;28.42;15.75;;;4.10;80.80;;;;;;5080718;28;20254;-70
2022/01/26 04:33:51;;;;;;;29.25;15.63;;;4.10;80.80;;;;;;5079205;28;20200;-70
2022/01/26 04:36:25;;;;;;;23.98;14.77;;;4.10;80.80;;;;;;5074494;28;20199;-72
2022/01/26 04:38:57;;;;;;;26.92;14.30;;;4.10;80.80;;;;;;5075346;28;20272;-70
2022/01/26 04:41:31;;;;;;;23.83;13.90;;;4.10;80.90;;;;;;5075981;28;20249;-70
2022/01/26 04:44:04;;;;;;;29.58;16.73;;;4.10;80.90;;;;;;5057733;28;20266;-70
2022/01/26 04:46:34;;;;;;;29.73;17.05;;;4.10;80.90;;;;;;5079568;28;20233;-70
2022/01/26 04:49:02;;;;;;;28.55;13.90;;;4.10;80.80;;;;;;5076935;28;20353;-71
2022/01/26 04:51:31;;;;;;;27.50;15.50;;;4.10;80.80;;;;;;5073088;28;20264;-69
2022/01/26 04:53:59;;;;;;;29.05;14.65;;;4.10;80.70;;;;;;5076667;28;20668;-71
2022/01/26 04:56:27;;;;;;;22.08;13.20;;;4.10;80.60;;;;;;5078881;28;20210;-70
2022/01/26 04:58:55;;;;;;;28.38;14.60;;;4.10;80.40;;;;;;5074829;28;20204;-70
2022/01/26 05:01:23;;;;;;;30.85;15.75;;;4.00;80.40;;;;;;5072718;28;20247;-70
2022/01/26 05:03:52;;;;;;;30.38;15.95;;;4.00;80.60;;;;;;5072390;28;20194;-69
2022/01/26 05:06:20;;;;;;;25.20;15.30;;;4.00;80.70;;;;;;5078762;28;20217;-72
2022/01/26 05:08:48;;;;;;;25.70;13.25;;;4.00;80.60;;;;;;5055928;28;20571;-71
2022/01/26 05:11:26;;;;;;;27.38;14.63;;;4.00;80.70;;;;;;5078902;28;20272;-73
2022/01/26 05:13:57;;;;;;;26.65;15.18;;;4.00;80.80;;;;;;5066545;28;20856;-72
2022/01/26 05:16:25;;;;;;;27.00;15.45;;;4.00;80.80;;;;;;5075241;28;20700;-71
2022/01/26 05:18:56;;;;;;;23.00;13.02;;;4.10;80.70;;;;;;5083592;28;20717;-69
2022/01/26 05:21:25;;;;;;;25.95;14.15;;;4.00;80.60;;;;;;5076830;28;20188;-70
2022/01/26 05:23:54;;;;;;;26.33;14.55;;;4.10;80.60;;;;;;5083160;28;20221;-71
2022/01/26 05:26:22;;;;;;;22.25;12.68;;;4.10;80.60;;;;;;5077638;28;20268;-71
2022/01/26 05:28:51;;;;;;;23.27;12.93;;;4.10;80.40;;;;;;5073227;28;20208;-69
2022/01/26 05:31:19;;;;;;;26.70;14.10;;;4.00;80.00;;;;;;5059900;28;20791;-70
2022/01/26 05:33:47;;;;;;;24.08;14.52;;;3.90;80.30;;;;;;5062131;28;20203;-71
2022/01/26 05:36:17;;;;;;;24.73;13.73;;;3.90;80.40;;;;;;5082684;28;20226;-70
2022/01/26 05:38:45;;;;;;;28.60;14.95;;;3.90;80.40;;;;;;5071375;28;20204;-70
2022/01/26 05:41:13;;;;;;;25.15;14.20;;;3.90;80.40;;;;;;5059648;28;20206;-70
2022/01/26 05:43:42;;;;;;;24.33;13.70;;;4.00;80.50;;;;;;5077958;28;20207;-71
2022/01/26 05:46:14;;;;;;;24.33;13.93;;;4.00;80.50;;;;;;5075866;28;20242;-71
2022/01/26 05:48:45;;;;;;;23.63;13.85;;;4.00;80.50;;;;;;5078249;28;20770;-70
2022/01/26 05:51:15;;;;;;;23.83;14.95;;;4.00;80.40;;;;;;5083766;28;20726;-71
2022/01/26 05:53:44;;;;;;;25.90;15.35;;;4.00;80.40;;;;;;5083182;28;20210;-71
2022/01/26 05:56:12;;;;;;;30.23;16.50;;;4.00;80.30;;;;;;5064232;28;20235;-70
2022/01/26 05:58:40;;;;;;;27.20;15.05;;;4.00;80.10;;;;;;5083830;28;20228;-70
2022/01/26 06:01:14;;;;;;;28.40;16.50;;;4.00;80.10;;;;;;5080252;28;20222;-70
2022/01/26 06:03:42;;;;;;;27.10;14.27;;;3.90;80.30;;;;;;5084029;28;20278;-71
2022/01/26 06:06:10;;;;;;;26.58;15.35;;;3.90;80.30;;;;;;5063192;28;20231;-71
2022/01/26 06:08:38;;;;;;;28.35;15.35;;;3.90;80.30;;;;;;5082442;28;20195;-70
2022/01/26 06:11:08;;;;;;;25.58;15.50;;;3.90;80.20;;;;;;5080305;28;20253;-70
2022/01/26 06:13:36;;;;;;;27.55;15.25;;;3.90;80.20;;;;;;5063028;28;20195;-70
2022/01/26 06:16:04;;;;;;;29.50;15.70;;;3.80;80.20;;;;;;5081297;28;20239;-70
2022/01/26 06:18:32;;;;;;;35.90;17.50;;;3.80;80.20;;;;;;5082681;28;20202;-71
2022/01/26 06:21:00;;;;;;;34.55;16.58;;;3.80;80.20;;;;;;5084831;28;20218;-70
2022/01/26 06:23:28;;;;;;;30.38;17.40;;;3.80;80.20;;;;;;5083967;28;20202;-70
2022/01/26 06:25:58;;;;;;;27.98;15.68;;;3.80;80.30;;;;;;5076899;28;20255;-70
2022/01/26 06:28:28;;;;;;;26.88;15.68;;;3.90;80.30;;;;;;5061543;28;20256;-70
2022/01/26 06:30:59;;;;;;;33.22;16.45;;;3.90;80.30;;;;;;5077594;28;20223;-70
2022/01/26 06:33:27;;;;;;;32.58;16.15;;;3.90;80.30;;;;;;5061146;28;20191;-70
2022/01/26 06:35:57;;;;;;;30.52;16.13;;;3.90;80.20;;;;;;5079569;28;20229;-72
2022/01/26 06:38:25;;;;;;;25.65;14.70;;;3.80;80.10;;;;;;5080423;28;20233;-70
2022/01/26 06:40:53;;;;;;;30.85;15.98;;;3.80;80.00;;;;;;5080699;28;20206;-71
2022/01/26 06:43:24;;;;;;;32.15;16.90;;;3.80;80.00;;;;;;5081610;28;20234;-71
2022/01/26 06:46:01;;;;;;;32.85;15.80;;;3.70;80.00;;;;;;5078976;28;20326;-70
2022/01/26 06:48:44;;;;;;;30.42;16.30;;;3.70;80.10;;;;;;5081313;28;20757;-71
2022/01/26 06:51:13;;;;;;;27.60;15.15;;;3.70;80.10;;;;;;5080633;28;20242;-69
2022/01/26 06:53:41;;;;;;;28.20;15.63;;;3.70;80.10;;;;;;5064040;28;20203;-68
2022/01/26 06:56:09;;;;;;;28.73;15.75;;;3.60;80.10;;;;;;5080055;28;20265;-69
2022/01/26 06:58:38;;;;;;;26.98;15.40;;;3.60;80.20;;;;;;5083018;28;20248;-69
2022/01/26 07:01:07;;;;;;;28.95;15.10;;;3.60;80.20;;;;;;5081322;28;20292;-69
2022/01/26 07:03:36;;;;;;;29.73;15.25;;;3.60;80.20;;;;;;5082518;28;20297;-69
2022/01/26 07:06:04;;;;;;;29.50;15.55;;;3.50;80.20;;;;;;5070512;28;20231;-69
2022/01/26 07:08:33;;;;;;;35.85;17.10;;;3.50;80.30;;;;;;5084354;28;20234;-69
2022/01/26 07:11:01;;;;;;;32.55;16.17;;;3.50;80.50;;;;;;5077946;28;20680;-69
2022/01/26 07:13:29;;;;;;;30.73;15.38;;;3.60;80.50;;;;;;5085861;28;20195;-69
2022/01/26 07:21:29;;;;;;;27.55;14.82;;;3.60;80.50;;;;;;5085041;28;20198;-69
2022/01/26 07:24:00;;;;;;;30.15;16.25;;;3.60;80.50;;;;;;5084269;28;20256;-69
2022/01/26 07:26:30;;;;;;;33.38;17.67;;;3.60;80.50;;;;;;5065230;28;20206;-69
2022/01/26 07:29:00;;;;;;;37.15;16.45;;;3.60;80.50;;;;;;5080759;28;20199;-69
2022/01/26 07:31:28;;;;;;;33.03;16.08;;;3.60;80.50;;;;;;5079193;28;20311;-69
2022/01/26 07:33:57;;;;;;;27.45;13.55;;;3.60;80.50;;;;;;5062891;28;20302;-69
2022/01/26 07:36:26;;;;;;;33.10;14.32;;;3.60;80.50;;;;;;5081939;28;20275;-68
2022/01/26 07:38:57;;;;;;;26.35;12.57;;;3.50;80.50;;;;;;5082346;28;20199;-69
2022/01/26 07:41:25;;;;;;;33.15;14.45;;;3.50;80.60;;;;;;5060659;28;20251;-69
2022/01/26 07:43:52;;;;;;;21.85;12.20;;;3.50;80.60;;;;;;5078529;28;20202;-69
2022/01/26 07:46:22;;;;;;;23.65;13.43;;;3.50;80.70;;;;;;5085241;28;20230;-69
2022/01/26 07:48:50;;;;;;;26.50;11.70;;;3.50;80.70;;;;;;5080841;28;20285;-68
2022/01/26 07:51:20;;;;;;;16.92;10.77;;;3.50;80.70;;;;;;5081920;28;20281;-69
2022/01/26 07:53:48;;;;;;;17.77;10.18;;;3.40;80.80;;;;;;5080689;28;20195;-69
2022/01/26 07:56:16;;;;;;;19.73;9.85;;;3.50;80.90;;;;;;5063650;28;20276;-69
2022/01/26 07:58:47;;;;;;;20.50;10.07;;;3.50;80.80;;;;;;5084616;28;20199;-69
2022/01/26 08:01:15;;;;;;;18.02;10.18;;;3.40;80.70;;;;;;5075064;28;20295;-69
2022/01/26 08:03:43;;;;;;;19.48;9.60;;;3.40;80.80;;;;;;5078002;28;20203;-69
2022/01/26 08:06:15;;;;;;;20.45;10.35;;;3.40;80.80;;;;;;5083407;28;20245;-69
2022/01/26 08:08:44;;;;;;;20.45;9.13;;;3.40;80.90;;;;;;5081764;28;20205;-69
2022/01/26 08:11:12;;;;;;;16.48;9.32;;;3.40;80.90;;;;;;5083046;28;20575;-68
2022/01/26 08:13:40;;;;;;;18.67;10.30;;;3.50;80.90;;;;;;5085550;28;20215;-69
2022/01/26 08:16:08;;;;;;;18.17;9.65;;;3.40;80.90;;;;;;5064139;28;20242;-69
2022/01/26 08:18:36;;;;;;;21.08;10.95;;;3.40;80.90;;;;;;5081155;28;20199;-69
2022/01/26 08:21:06;;;;;;;16.88;10.10;;;3.40;81.00;;;;;;5083034;28;20948;-69
2022/01/26 08:23:36;;;;;;;15.57;8.68;;;3.50;80.90;;;;;;5085311;28;20199;-69
2022/01/26 08:26:05;;;;;;;18.00;9.70;;;3.50;80.90;;;;;;5084706;28;20222;-68
2022/01/26 08:28:37;;;;;;;18.80;10.45;;;3.40;80.80;;;;;;5080782;28;20202;-69
2022/01/26 08:31:05;;;;;;;20.20;12.00;;;3.40;80.90;;;;;;5082883;28;20269;-69
2022/01/26 08:33:33;;;;;;;21.48;13.35;;;3.40;80.90;;;;;;5062479;28;20223;-69
2022/01/26 08:36:01;;;;;;;28.27;17.80;;;3.40;80.90;;;;;;5083626;28;20307;-69
2022/01/26 08:38:29;;;;;;;37.45;21.92;;;3.40;80.90;;;;;;5080234;28;20861;-69
2022/01/26 08:40:57;;;;;;;19.38;10.93;;;3.50;81.00;;;;;;5084404;28;20207;-69
2022/01/26 08:43:26;;;;;;;16.60;8.80;;;3.50;81.00;;;;;;5062989;28;20667;-68
2022/01/26 08:45:54;;;;;;;14.70;8.95;;;3.50;80.90;;;;;;5066157;28;20276;-69
2022/01/26 08:48:23;;;;;;;23.55;9.85;;;3.40;81.00;;;;;;5084918;28;20839;-69
2022/01/26 08:50:51;;;;;;;16.88;9.88;;;3.40;81.00;;;;;;5066444;28;20207;-68
2022/01/26 08:53:19;;;;;;;14.90;8.38;;;3.40;80.90;;;;;;5083346;28;20237;-69
2022/01/26 08:55:47;;;;;;;16.52;8.70;;;3.40;80.90;;;;;;5084181;28;20280;-69
2022/01/26 08:58:16;;;;;;;21.13;10.65;;;3.40;80.90;;;;;;5083250;28;20199;-69
2022/01/26 09:00:45;;;;;;;19.63;9.25;;;3.40;81.00;;;;;;5081607;28;20766;-69
2022/01/26 09:03:16;;;;;;;13.32;7.47;;;3.40;81.10;;;;;;5081537;28;20202;-69
2022/01/26 09:05:44;;;;;;;14.73;8.50;;;3.40;81.10;;;;;;5083767;28;20221;-68
2022/01/26 09:08:12;;;;;;;17.00;9.60;;;3.40;81.00;;;;;;5080995;28;20229;-69
2022/01/26 09:10:41;;;;;;;18.20;9.70;;;3.40;81.00;;;;;;5087154;28;20276;-69
2022/01/26 09:13:09;;;;;;;19.10;10.40;;;3.40;81.10;;;;;;5085627;28;20207;-69
2022/01/26 09:15:39;;;;;;;14.35;8.60;;;3.40;81.20;;;;;;5086299;28;20234;-69
2022/01/26 09:18:14;;;;;;;17.67;8.82;;;3.40;81.10;;;;;;5087242;28;20215;-69
2022/01/26 09:20:42;;;;;;;14.55;8.80;;;3.40;81.00;;;;;;5086762;28;20272;-69
2022/01/26 09:23:09;;;;;;;15.30;8.35;;;3.40;81.10;;;;;;5085776;28;20268;-68
2022/01/26 09:25:37;;;;;;;16.88;8.23;;;3.40;81.20;;;;;;5089173;28;20215;-69
2022/01/26 09:28:05;;;;;;;19.42;10.90;;;3.40;81.20;;;;;;5084413;28;20211;-69
2022/01/26 09:30:33;;;;;;;16.00;9.50;;;3.40;81.30;;;;;;5085176;28;20291;-68
2022/01/26 09:33:01;;;;;;;19.08;10.32;;;3.40;81.20;;;;;;5087981;28;20276;-69
2022/01/26 09:35:30;;;;;;;15.45;10.25;;;3.40;81.20;;;;;;5087762;28;20281;-69
2022/01/26 09:37:58;;;;;;;14.57;10.38;;;3.50;81.20;;;;;;5087957;28;20871;-69
2022/01/26 09:40:26;;;;;;;16.95;10.70;;;3.50;81.20;;;;;;5088183;28;20211;-69
2022/01/26 09:42:56;;;;;;;15.38;9.63;;;3.40;81.20;;;;;;5091541;28;20245;-69
2022/01/26 09:45:24;;;;;;;19.67;10.85;;;3.50;81.20;;;;;;5088654;28;20218;-71
2022/01/26 09:47:52;;;;;;;20.17;10.85;;;3.50;81.20;;;;;;5089931;28;20267;-68
2022/01/26 09:50:34;;;;;;;14.45;9.60;;;3.50;81.30;;;;;;5083736;28;20203;-68
2022/01/26 09:53:02;;;;;;;16.95;9.75;;;3.50;81.10;;;;;;5086470;28;20442;-68
2022/01/26 09:55:31;;;;;;;15.95;8.38;;;3.50;81.10;;;;;;5068587;28;20238;-68
2022/01/26 09:58:02;;;;;;;15.55;9.65;;;3.40;81.20;;;;;;5062445;28;20510;-68
2022/01/26 10:00:30;;;;;;;16.42;9.82;;;3.40;81.10;;;;;;5082693;28;20743;-68
2022/01/26 10:03:00;;;;;;;13.35;8.30;;;3.40;81.10;;;;;;5088691;28;20199;-68
2022/01/26 10:05:41;;;;;;;17.77;11.23;;;3.40;81.30;;;;;;5083760;28;20217;-71
2022/01/26 10:08:23;;;;;;;16.67;9.40;;;3.40;81.10;;;;;;5087596;28;20264;-68
2022/01/26 10:17:04;;;;;;;16.27;9.00;;;3.20;81.10;;;;;;5062890;28;20743;-68
2022/01/26 10:19:24;;;;;;;13.45;8.13;;;3.20;81.20;;;;;;5084315;28;20888;-68
2022/01/26 10:21:54;;;;;;;15.10;9.15;;;3.20;81.20;;;;;;5084771;28;20641;-68
2022/01/26 10:24:28;;;;;;;12.38;8.48;;;3.20;81.30;;;;;;5078470;28;20238;-68
2022/01/26 10:26:59;;;;;;;10.90;6.80;;;3.10;81.20;;;;;;5069561;28;20209;-68
2022/01/26 10:29:28;;;;;;;9.23;5.90;;;3.10;81.30;;;;;;5081950;28;20192;-69
2022/01/26 10:31:56;;;;;;;9.82;5.78;;;3.10;81.30;;;;;;5084365;28;20905;-68
2022/01/26 10:34:24;;;;;;;7.03;5.03;;;3.10;81.50;;;;;;5085971;28;20237;-68
2022/01/26 10:36:59;;;;;;;7.47;4.80;;;3.20;81.50;;;;;;5084925;28;20214;-69
2022/01/26 10:39:31;;;;;;;10.65;6.20;;;3.20;81.50;;;;;;5061090;28;20199;-68
2022/01/26 10:42:04;;;;;;;8.63;5.72;;;3.30;81.50;;;;;;5084960;28;20935;-69
2022/01/26 10:44:37;;;;;;;8.73;5.85;;;3.30;81.50;;;;;;5081575;28;20276;-69
2022/01/26 10:47:06;;;;;;;10.35;6.20;;;3.30;81.50;;;;;;5063402;28;20248;-69
2022/01/26 10:49:55;;;;;;;9.45;5.85;;;3.40;81.50;;;;;;5083306;28;20205;-69
2022/01/26 10:52:32;;;;;;;10.00;6.10;;;3.40;81.40;;;;;;5084614;28;20218;-69
2022/01/26 10:55:00;;;;;;;10.82;5.80;;;3.40;81.50;;;;;;5084411;28;20226;-69
2022/01/26 10:57:28;;;;;;;9.00;6.07;;;3.40;81.40;;;;;;5087067;28;20603;-69
2022/01/26 10:59:57;;;;;;;10.52;6.35;;;3.40;81.40;;;;;;5079485;28;20202;-69
2022/01/26 11:02:27;;;;;;;9.10;5.88;;;3.40;81.40;;;;;;5079686;28;20223;-69
2022/01/26 11:04:56;;;;;;;8.55;5.15;;;3.40;81.40;;;;;;5075006;28;20689;-71
2022/01/26 11:07:40;;;;;;;7.97;4.47;;;3.40;81.50;;;;;;5082208;28;20206;-70
2022/01/26 11:10:12;;;;;;;8.88;5.80;;;3.40;81.40;;;;;;5076731;28;21273;-69
2022/01/26 11:12:41;;;;;;;9.23;6.13;;;3.40;81.40;;;;;;5081061;28;20206;-69
2022/01/26 11:15:12;;;;;;;8.82;5.60;;;3.40;81.50;;;;;;5080413;28;20245;-69
2022/01/26 11:17:43;;;;;;;7.53;5.30;;;3.40;81.50;;;;;;5075806;28;20659;-69
2022/01/26 11:20:20;;;;;;;6.85;4.90;;;3.40;81.60;;;;;;5076609;28;20206;-69
2022/01/26 11:22:51;;;;;;;8.00;4.75;;;3.40;81.60;;;;;;5078085;28;20203;-69
2022/01/26 11:25:20;;;;;;;8.15;5.60;;;3.50;81.50;;;;;;5080703;28;20917;-69
2022/01/26 11:27:48;;;;;;;10.65;6.07;;;3.40;81.40;;;;;;5081431;28;20206;-69
2022/01/26 11:30:19;;;;;;;12.55;6.20;;;3.40;81.40;;;;;;5063141;28;20203;-72
2022/01/26 11:32:53;;;;;;;10.10;5.95;;;3.40;81.50;;;;;;5081272;28;20203;-70
2022/01/26 11:35:23;;;;;;;7.45;5.70;;;3.30;81.50;;;;;;5077508;28;20988;-71
2022/01/26 11:38:07;;;;;;;8.95;4.68;;;3.30;81.50;;;;;;5079983;28;20215;-71
2022/01/26 11:46:29;;;;;;;8.98;5.75;;;3.20;81.50;;;;;;5077664;28;20246;-69
2022/01/26 11:49:06;;;;;;;7.93;5.82;;;3.20;81.80;;;;;;5079506;28;20206;-69
2022/01/26 11:51:45;;;;;;;9.82;7.20;;;3.20;81.60;;;;;;5079577;28;20222;-72
2022/01/26 11:54:18;;;;;;;9.40;6.60;;;3.20;81.50;;;;;;5075367;28;20219;-70
2022/01/26 11:56:58;;;;;;;10.05;7.15;;;3.20;81.60;;;;;;5079474;28;20214;-69
2022/01/26 11:59:29;;;;;;;10.43;7.43;;;3.20;81.80;;;;;;5080524;28;20264;-68
2022/01/26 12:02:01;;;;;;;12.80;7.43;;;3.20;81.60;;;;;;5080559;28;20247;-69
2022/01/26 12:04:33;;;;;;;10.80;7.32;;;3.20;81.80;;;;;;5078705;28;20306;-69
2022/01/26 12:07:20;;;;;;;12.63;7.47;;;3.20;81.80;;;;;;5082810;28;20206;-68
2022/01/26 12:09:51;;;;;;;11.52;7.57;;;3.20;81.80;;;;;;5079248;28;20225;-68
2022/01/26 12:12:20;;;;;;;15.27;8.30;;;3.20;81.80;;;;;;5080973;28;20222;-69
2022/01/26 12:15:04;;;;;;;12.90;8.00;;;3.20;81.60;;;;;;5079042;28;20272;-68
2022/01/26 12:17:37;;;;;;;10.20;7.82;;;3.20;81.80;;;;;;5079349;28;20248;-69
2022/01/26 12:34:42;;;;;;;15.05;9.90;;;3.20;81.90;;;;;;5080475;28;20638;-69
2022/01/26 12:37:16;;;;;;;13.57;8.52;;;3.30;81.90;;;;;;5079667;28;20264;-70
2022/01/26 12:42:55;;;;;;;14.73;8.75;;;3.30;81.80;;;;;;5078735;28;20258;-69
2022/01/26 12:45:46;;;;;;;14.20;8.70;;;3.30;81.70;;;;;;5079738;28;20681;-69
2022/01/26 12:48:14;;;;;;;13.57;8.02;;;3.40;81.80;;;;;;5078850;28;20199;-68
2022/01/26 12:50:43;;;;;;;13.88;9.35;;;3.40;81.80;;;;;;5077056;28;20260;-68
2022/01/26 12:53:11;;;;;;;13.80;8.38;;;3.40;81.80;;;;;;5079081;28;20691;-70
2022/01/26 12:55:39;;;;;;;14.27;9.20;;;3.40;81.80;;;;;;5063385;28;20222;-70
2022/01/26 12:58:09;;;;;;;11.82;7.70;;;3.40;81.80;;;;;;5082229;28;20199;-68
2022/01/26 13:00:45;;;;;;;14.85;8.70;;;3.40;81.80;;;;;;5054813;28;20255;-69
2022/01/26 13:03:16;;;;;;;12.00;7.63;;;3.40;81.70;;;;;;5076454;28;20281;-70
2022/01/26 13:05:44;;;;;;;10.85;7.63;;;3.40;81.70;;;;;;5077274;28;20250;-69
2022/01/26 13:08:12;;;;;;;10.60;6.97;;;3.40;81.70;;;;;;5079595;28;20198;-69
2022/01/26 13:10:40;;;;;;;9.50;6.10;;;3.50;81.80;;;;;;5063818;28;20208;-69
2022/01/26 13:13:16;;;;;;;8.35;6.05;;;3.50;81.80;;;;;;5061636;28;20199;-69
2022/01/26 13:15:59;;;;;;;9.85;7.30;;;3.50;81.70;;;;;;5073108;28;20238;-69
2022/01/26 13:21:52;;;;;;;11.45;6.93;;;3.50;81.70;;;;;;5059415;28;20221;-69
2022/01/26 13:24:32;;;;;;;11.15;7.90;;;3.50;81.70;;;;;;5060786;28;20207;-70
2022/01/26 13:27:10;;;;;;;12.02;7.20;;;3.50;81.70;;;;;;5079326;28;20255;-70
2022/01/26 13:29:52;;;;;;;11.20;8.20;;;3.50;81.70;;;;;;5078918;28;20754;-69
2022/01/26 13:35:33;;;;;;;12.38;7.85;;;3.60;81.70;;;;;;5043853;28;20247;-69
2022/01/26 13:38:20;;;;;;;12.65;8.60;;;3.60;81.60;;;;;;5078326;28;20221;-69
2022/01/26 13:40:58;;;;;;;13.45;9.05;;;3.50;81.60;;;;;;5075917;28;20264;-69
2022/01/26 13:54:54;;;;;;;14.18;9.23;;;3.40;81.50;;;;;;5074539;28;20262;-70
2022/01/26 14:00:11;;;;;;;13.65;8.68;;;3.40;81.70;;;;;;5079066;28;20202;-70
2022/01/26 14:02:41;;;;;;;12.82;8.57;;;3.50;81.70;;;;;;5080602;28;20702;-69
2022/01/26 14:05:12;;;;;;;15.80;9.60;;;3.50;81.70;;;;;;5080130;28;20219;-70
2022/01/26 14:07:40;;;;;;;14.07;9.30;;;3.50;81.70;;;;;;5079150;28;21545;-69
2022/01/26 14:10:09;;;;;;;13.70;9.48;;;3.50;81.70;;;;;;5075446;28;20207;-70
2022/01/26 14:12:41;;;;;;;19.58;11.45;;;3.50;81.70;;;;;;5076497;28;20237;-69
2022/01/26 14:15:09;;;;;;;15.80;10.13;;;3.50;81.60;;;;;;5076584;28;20241;-69
2022/01/26 14:17:54;;;;;;;15.43;10.55;;;3.50;81.60;;;;;;5077411;28;20213;-69
2022/01/26 14:23:31;;;;;;;17.90;11.60;;;3.50;81.60;;;;;;5077058;28;20205;-69
2022/01/26 14:25:59;;;;;;;21.35;10.80;;;3.40;81.60;;;;;;5078467;28;20632;-69
2022/01/26 14:28:33;;;;;;;19.55;10.45;;;3.50;81.70;;;;;;5081745;28;20206;-69
2022/01/26 14:31:25;;;;;;;22.33;12.05;;;3.50;81.80;;;;;;5079040;28;20281;-69
2022/01/26 14:39:24;;;;;;;18.67;11.88;;;3.50;81.70;;;;;;5065474;28;20304;-69
2022/01/26 14:40:18;;;;;;;19.95;11.05;;;3.50;81.70;;;;;;5076930;28;20202;-71
2022/01/26 14:51:15;;;;;;;20.85;11.45;;;3.50;81.80;;;;;;5077321;28;20198;-70
2022/01/26 14:54:17;;;;;;;18.75;11.20;;;3.50;81.80;;;;;;5079930;28;20198;-69
2022/01/26 15:30:14;;;;;;;16.00;10.48;;;3.50;81.80;;;;;;5077313;28;20195;-70
2022/01/26 15:41:25;;;;;;;19.63;11.75;;;3.40;81.80;;;;;;5075579;28;20196;-69
2022/01/26 15:44:18;;;;;;;20.10;11.77;;;3.40;81.90;;;;;;5078359;28;20252;-69
2022/01/26 15:49:51;;;;;;;22.63;12.55;;;3.40;81.80;;;;;;5077357;28;20194;-70